sensor_id;sensor_type;location;lat;lon;timestamp;pressure;altitude;pressure_sealevel;temperature;humidity
29505;BME280;16452;54.174;12.092;2023-03-07T00:01:00;99544.81;;;3.82;85.81
29505;BME280;16452;54.174;12.092;2023-03-07T00:03:26;99542.66;;;3.91;86.08
29505;BME280;16452;54.174;12.092;2023-03-07T00:06:02;99532.16;;;3.77;87.52
29505;BME280;16452;54.174;12.092;2023-03-07T00:08:28;99537.28;;;3.58;88.19
29505;BME280;16452;54.174;12.092;2023-03-07T00:10:53;99535.28;;;3.65;87.84
29505;BME280;16452;54.174;12.092;2023-03-07T00:13:19;99535.94;;;3.89;87.54
29505;BME280;16452;54.174;12.092;2023-03-07T00:15:45;99533.97;;;3.94;87.31
29505;BME280;16452;54.174;12.092;2023-03-07T00:18:10;99523.38;;;3.81;87.00
29505;BME280;16452;54.174;12.092;2023-03-07T00:20:36;99518.38;;;3.78;87.22
29505;BME280;16452;54.174;12.092;2023-03-07T00:23:02;99515.44;;;3.86;86.29
29505;BME280;16452;54.174;12.092;2023-03-07T00:25:29;99512.25;;;3.99;86.73
29505;BME280;16452;54.174;12.092;2023-03-07T00:27:55;99486.84;;;3.73;86.99
29505;BME280;16452;54.174;12.092;2023-03-07T00:30:20;99505.56;;;3.77;87.50
29505;BME280;16452;54.174;12.092;2023-03-07T00:32:46;99489.22;;;3.78;87.12
29505;BME280;16452;54.174;12.092;2023-03-07T00:35:12;99485.53;;;3.83;87.34
29505;BME280;16452;54.174;12.092;2023-03-07T00:37:38;99478.53;;;3.48;87.93
29505;BME280;16452;54.174;12.092;2023-03-07T00:40:04;99481.25;;;3.45;88.88
29505;BME280;16452;54.174;12.092;2023-03-07T00:42:31;99463.72;;;3.53;89.42
29505;BME280;16452;54.174;12.092;2023-03-07T00:44:57;99461.00;;;3.37;89.01
29505;BME280;16452;54.174;12.092;2023-03-07T00:47:22;99457.97;;;3.66;89.04
29505;BME280;16452;54.174;12.092;2023-03-07T00:49:48;99448.78;;;3.61;88.78
29505;BME280;16452;54.174;12.092;2023-03-07T00:52:14;99427.06;;;3.66;89.63
29505;BME280;16452;54.174;12.092;2023-03-07T00:54:39;99432.53;;;3.40;90.34
29505;BME280;16452;54.174;12.092;2023-03-07T00:57:05;99414.25;;;3.65;89.32
29505;BME280;16452;54.174;12.092;2023-03-07T00:59:31;99405.97;;;3.58;90.31
29505;BME280;16452;54.174;12.092;2023-03-07T01:01:57;99408.88;;;3.32;90.20
29505;BME280;16452;54.174;12.092;2023-03-07T01:04:22;99392.97;;;3.43;89.95
29505;BME280;16452;54.174;12.092;2023-03-07T01:06:48;99382.94;;;3.55;89.80
29505;BME280;16452;54.174;12.092;2023-03-07T01:09:14;99377.66;;;3.40;89.32
29505;BME280;16452;54.174;12.092;2023-03-07T01:11:40;99371.06;;;3.53;89.40
29505;BME280;16452;54.174;12.092;2023-03-07T01:14:06;99364.56;;;3.44;89.72
29505;BME280;16452;54.174;12.092;2023-03-07T01:16:35;99353.94;;;3.52;89.53
29505;BME280;16452;54.174;12.092;2023-03-07T01:19:05;99344.63;;;3.49;89.27
29505;BME280;16452;54.174;12.092;2023-03-07T01:21:34;99330.34;;;3.61;88.79
29505;BME280;16452;54.174;12.092;2023-03-07T01:24:01;99333.06;;;3.39;89.05
29505;BME280;16452;54.174;12.092;2023-03-07T01:26:29;99329.59;;;3.59;87.86
29505;BME280;16452;54.174;12.092;2023-03-07T01:28:59;99313.72;;;3.85;87.06
29505;BME280;16452;54.174;12.092;2023-03-07T01:31:26;99304.13;;;3.89;86.00
29505;BME280;16452;54.174;12.092;2023-03-07T01:33:53;99296.56;;;3.67;86.83
29505;BME280;16452;54.174;12.092;2023-03-07T01:36:25;99298.13;;;3.71;86.18
29505;BME280;16452;54.174;12.092;2023-03-07T01:38:58;99290.09;;;3.77;85.89
29505;BME280;16452;54.174;12.092;2023-03-07T01:41:27;99278.97;;;3.77;85.45
29505;BME280;16452;54.174;12.092;2023-03-07T01:44:00;99278.59;;;3.84;85.96
29505;BME280;16452;54.174;12.092;2023-03-07T01:46:51;99261.00;;;3.92;87.73
29505;BME280;16452;54.174;12.092;2023-03-07T01:49:30;99257.16;;;3.66;90.87
29505;BME280;16452;54.174;12.092;2023-03-07T01:52:14;99249.31;;;3.51;94.83
29505;BME280;16452;54.174;12.092;2023-03-07T01:54:47;99241.06;;;3.61;96.73
29505;BME280;16452;54.174;12.092;2023-03-07T01:57:23;99242.00;;;3.60;98.16
29505;BME280;16452;54.174;12.092;2023-03-07T01:59:55;99216.16;;;3.62;98.49
29505;BME280;16452;54.174;12.092;2023-03-07T02:02:22;99217.22;;;3.22;100.00
29505;BME280;16452;54.174;12.092;2023-03-07T02:05:22;99204.16;;;3.44;100.00
29505;BME280;16452;54.174;12.092;2023-03-07T02:07:51;99197.97;;;3.30;100.00
29505;BME280;16452;54.174;12.092;2023-03-07T02:10:38;99184.19;;;3.32;100.00
29505;BME280;16452;54.174;12.092;2023-03-07T02:13:04;99189.31;;;3.14;100.00
29505;BME280;16452;54.174;12.092;2023-03-07T02:15:33;99175.13;;;3.06;100.00
29505;BME280;16452;54.174;12.092;2023-03-07T02:17:59;99172.63;;;3.04;100.00
29505;BME280;16452;54.174;12.092;2023-03-07T02:23:05;99150.28;;;3.23;100.00
29505;BME280;16452;54.174;12.092;2023-03-07T02:25:56;99143.19;;;2.93;100.00
29505;BME280;16452;54.174;12.092;2023-03-07T02:28:26;99139.75;;;3.11;100.00
29505;BME280;16452;54.174;12.092;2023-03-07T02:31:01;99132.25;;;3.06;100.00
29505;BME280;16452;54.174;12.092;2023-03-07T02:33:28;99129.50;;;2.56;100.00
29505;BME280;16452;54.174;12.092;2023-03-07T02:36:03;99118.28;;;2.76;100.00
29505;BME280;16452;54.174;12.092;2023-03-07T02:38:32;99115.38;;;2.65;100.00
29505;BME280;16452;54.174;12.092;2023-03-07T02:41:03;99099.81;;;2.68;100.00
29505;BME280;16452;54.174;12.092;2023-03-07T02:43:29;99103.16;;;2.51;100.00
29505;BME280;16452;54.174;12.092;2023-03-07T02:45:54;99084.75;;;2.41;100.00
29505;BME280;16452;54.174;12.092;2023-03-07T02:48:20;99079.53;;;2.62;100.00
29505;BME280;16452;54.174;12.092;2023-03-07T02:50:49;99073.16;;;2.87;100.00
29505;BME280;16452;54.174;12.092;2023-03-07T02:53:15;99061.78;;;2.92;100.00
29505;BME280;16452;54.174;12.092;2023-03-07T02:55:41;99056.81;;;2.88;100.00
29505;BME280;16452;54.174;12.092;2023-03-07T02:58:07;99056.72;;;2.73;100.00
29505;BME280;16452;54.174;12.092;2023-03-07T03:00:33;99054.66;;;2.62;100.00
29505;BME280;16452;54.174;12.092;2023-03-07T03:02:59;99047.19;;;2.75;100.00
29505;BME280;16452;54.174;12.092;2023-03-07T03:05:25;99040.00;;;2.81;100.00
29505;BME280;16452;54.174;12.092;2023-03-07T03:07:51;99032.13;;;2.50;100.00
29505;BME280;16452;54.174;12.092;2023-03-07T03:10:17;99031.22;;;2.68;100.00
29505;BME280;16452;54.174;12.092;2023-03-07T03:12:43;99029.19;;;2.92;100.00
29505;BME280;16452;54.174;12.092;2023-03-07T03:15:09;99027.00;;;2.67;100.00
29505;BME280;16452;54.174;12.092;2023-03-07T03:17:35;99024.94;;;2.57;100.00
29505;BME280;16452;54.174;12.092;2023-03-07T03:20:01;99022.63;;;2.86;100.00
29505;BME280;16452;54.174;12.092;2023-03-07T03:22:32;99019.91;;;2.72;100.00
29505;BME280;16452;54.174;12.092;2023-03-07T03:24:58;99005.13;;;2.59;100.00
29505;BME280;16452;54.174;12.092;2023-03-07T03:27:23;99009.16;;;2.64;100.00
29505;BME280;16452;54.174;12.092;2023-03-07T03:29:52;99015.97;;;2.82;100.00
29505;BME280;16452;54.174;12.092;2023-03-07T03:32:19;98999.16;;;2.58;100.00
29505;BME280;16452;54.174;12.092;2023-03-07T03:34:45;98980.16;;;2.79;100.00
29505;BME280;16452;54.174;12.092;2023-03-07T03:37:11;98976.44;;;2.85;100.00
29505;BME280;16452;54.174;12.092;2023-03-07T03:39:37;98976.75;;;2.79;100.00
29505;BME280;16452;54.174;12.092;2023-03-07T03:42:03;98971.59;;;2.62;100.00
29505;BME280;16452;54.174;12.092;2023-03-07T03:44:28;98971.97;;;2.54;100.00
29505;BME280;16452;54.174;12.092;2023-03-07T03:46:54;98981.94;;;2.60;100.00
29505;BME280;16452;54.174;12.092;2023-03-07T03:49:20;98971.34;;;2.49;100.00
29505;BME280;16452;54.174;12.092;2023-03-07T03:51:45;98961.81;;;2.68;100.00
29505;BME280;16452;54.174;12.092;2023-03-07T03:54:11;98954.44;;;2.79;100.00
29505;BME280;16452;54.174;12.092;2023-03-07T03:56:37;98958.59;;;2.82;100.00
29505;BME280;16452;54.174;12.092;2023-03-07T03:59:03;98953.06;;;2.89;100.00
29505;BME280;16452;54.174;12.092;2023-03-07T04:01:29;98938.84;;;2.82;100.00
29505;BME280;16452;54.174;12.092;2023-03-07T04:03:56;98939.06;;;2.95;100.00
29505;BME280;16452;54.174;12.092;2023-03-07T04:06:32;98923.41;;;3.00;100.00
29505;BME280;16452;54.174;12.092;2023-03-07T04:08:59;98923.88;;;2.91;100.00
29505;BME280;16452;54.174;12.092;2023-03-07T04:11:25;98923.56;;;2.62;100.00
29505;BME280;16452;54.174;12.092;2023-03-07T04:13:51;98930.84;;;2.71;100.00
29505;BME280;16452;54.174;12.092;2023-03-07T04:16:18;98922.44;;;2.85;100.00
29505;BME280;16452;54.174;12.092;2023-03-07T04:18:44;98916.06;;;2.92;100.00
29505;BME280;16452;54.174;12.092;2023-03-07T04:21:10;98914.19;;;2.96;100.00
29505;BME280;16452;54.174;12.092;2023-03-07T04:23:36;98911.16;;;2.87;100.00
29505;BME280;16452;54.174;12.092;2023-03-07T04:26:04;98902.50;;;3.06;100.00
29505;BME280;16452;54.174;12.092;2023-03-07T04:28:35;98900.84;;;3.38;100.00
29505;BME280;16452;54.174;12.092;2023-03-07T04:31:20;98880.72;;;3.28;100.00
29505;BME280;16452;54.174;12.092;2023-03-07T04:33:46;98879.38;;;3.21;100.00
29505;BME280;16452;54.174;12.092;2023-03-07T04:36:13;98873.25;;;3.08;100.00
29505;BME280;16452;54.174;12.092;2023-03-07T04:38:41;98860.06;;;3.30;100.00
29505;BME280;16452;54.174;12.092;2023-03-07T04:41:10;98858.97;;;3.34;100.00
29505;BME280;16452;54.174;12.092;2023-03-07T04:43:37;98855.72;;;3.15;100.00
29505;BME280;16452;54.174;12.092;2023-03-07T04:46:03;98851.34;;;3.17;100.00
29505;BME280;16452;54.174;12.092;2023-03-07T04:48:29;98834.34;;;3.14;100.00
29505;BME280;16452;54.174;12.092;2023-03-07T04:50:54;98836.13;;;2.97;100.00
29505;BME280;16452;54.174;12.092;2023-03-07T04:53:20;98834.03;;;2.87;100.00
29505;BME280;16452;54.174;12.092;2023-03-07T04:55:46;98830.75;;;3.01;100.00
29505;BME280;16452;54.174;12.092;2023-03-07T04:58:13;98827.34;;;3.01;100.00
29505;BME280;16452;54.174;12.092;2023-03-07T05:00:44;98831.66;;;3.16;100.00
29505;BME280;16452;54.174;12.092;2023-03-07T05:03:12;98823.94;;;3.16;100.00
29505;BME280;16452;54.174;12.092;2023-03-07T05:05:38;98822.34;;;2.98;100.00
29505;BME280;16452;54.174;12.092;2023-03-07T05:08:04;98833.41;;;3.15;100.00
29505;BME280;16452;54.174;12.092;2023-03-07T05:10:34;98824.97;;;3.29;100.00
29505;BME280;16452;54.174;12.092;2023-03-07T05:13:00;98820.31;;;3.20;100.00
29505;BME280;16452;54.174;12.092;2023-03-07T05:15:26;98821.22;;;3.35;100.00
29505;BME280;16452;54.174;12.092;2023-03-07T05:17:52;98826.28;;;3.36;100.00
29505;BME280;16452;54.174;12.092;2023-03-07T05:20:18;98824.06;;;3.30;100.00
29505;BME280;16452;54.174;12.092;2023-03-07T05:22:44;98819.06;;;3.43;100.00
29505;BME280;16452;54.174;12.092;2023-03-07T05:25:10;98813.09;;;3.42;100.00
29505;BME280;16452;54.174;12.092;2023-03-07T05:27:36;98811.19;;;3.30;100.00
29505;BME280;16452;54.174;12.092;2023-03-07T05:30:03;98804.94;;;3.50;100.00
29505;BME280;16452;54.174;12.092;2023-03-07T05:32:30;98795.22;;;3.39;100.00
29505;BME280;16452;54.174;12.092;2023-03-07T05:34:57;98801.38;;;3.52;100.00
29505;BME280;16452;54.174;12.092;2023-03-07T05:37:22;98784.97;;;3.69;100.00
29505;BME280;16452;54.174;12.092;2023-03-07T05:39:48;98783.44;;;3.66;100.00
29505;BME280;16452;54.174;12.092;2023-03-07T05:42:14;98786.41;;;3.59;100.00
29505;BME280;16452;54.174;12.092;2023-03-07T05:44:41;98777.00;;;3.73;100.00
29505;BME280;16452;54.174;12.092;2023-03-07T05:47:07;98768.28;;;3.76;100.00
29505;BME280;16452;54.174;12.092;2023-03-07T05:49:33;98763.00;;;3.63;100.00
29505;BME280;16452;54.174;12.092;2023-03-07T05:51:58;98754.78;;;3.87;100.00
29505;BME280;16452;54.174;12.092;2023-03-07T05:54:24;98760.91;;;3.70;100.00
29505;BME280;16452;54.174;12.092;2023-03-07T05:56:50;98763.72;;;3.36;100.00
29505;BME280;16452;54.174;12.092;2023-03-07T05:59:16;98751.44;;;3.70;100.00
29505;BME280;16452;54.174;12.092;2023-03-07T06:01:42;98742.25;;;3.81;100.00
29505;BME280;16452;54.174;12.092;2023-03-07T06:04:08;98744.47;;;3.57;100.00
29505;BME280;16452;54.174;12.092;2023-03-07T06:06:34;98737.88;;;3.67;100.00
29505;BME280;16452;54.174;12.092;2023-03-07T06:09:00;98731.22;;;3.79;100.00
29505;BME280;16452;54.174;12.092;2023-03-07T06:11:26;98729.94;;;3.86;100.00
29505;BME280;16452;54.174;12.092;2023-03-07T06:13:52;98727.00;;;3.78;100.00
29505;BME280;16452;54.174;12.092;2023-03-07T06:16:17;98710.47;;;3.82;100.00
29505;BME280;16452;54.174;12.092;2023-03-07T06:18:43;98713.50;;;3.88;100.00
29505;BME280;16452;54.174;12.092;2023-03-07T06:21:09;98711.00;;;3.87;100.00
29505;BME280;16452;54.174;12.092;2023-03-07T06:23:37;98706.78;;;3.86;100.00
29505;BME280;16452;54.174;12.092;2023-03-07T06:26:04;98700.97;;;3.82;100.00
29505;BME280;16452;54.174;12.092;2023-03-07T06:28:30;98692.72;;;3.91;100.00
29505;BME280;16452;54.174;12.092;2023-03-07T06:30:55;98697.69;;;3.94;100.00
29505;BME280;16452;54.174;12.092;2023-03-07T06:33:21;98686.13;;;4.01;100.00
29505;BME280;16452;54.174;12.092;2023-03-07T06:35:47;98687.75;;;3.88;100.00
29505;BME280;16452;54.174;12.092;2023-03-07T06:38:15;98682.34;;;4.21;100.00
29505;BME280;16452;54.174;12.092;2023-03-07T06:40:41;98676.91;;;4.26;100.00
29505;BME280;16452;54.174;12.092;2023-03-07T06:43:08;98668.72;;;4.47;100.00
29505;BME280;16452;54.174;12.092;2023-03-07T06:45:34;98675.63;;;4.04;100.00
29505;BME280;16452;54.174;12.092;2023-03-07T06:48:01;98660.06;;;4.20;100.00
29505;BME280;16452;54.174;12.092;2023-03-07T06:50:27;98656.88;;;4.17;100.00
29505;BME280;16452;54.174;12.092;2023-03-07T06:52:53;98654.00;;;4.21;100.00
29505;BME280;16452;54.174;12.092;2023-03-07T06:55:19;98653.72;;;3.97;100.00
29505;BME280;16452;54.174;12.092;2023-03-07T06:57:45;98648.50;;;3.99;100.00
29505;BME280;16452;54.174;12.092;2023-03-07T07:00:12;98646.19;;;4.23;100.00
29505;BME280;16452;54.174;12.092;2023-03-07T07:02:38;98637.34;;;3.98;100.00
29505;BME280;16452;54.174;12.092;2023-03-07T07:05:04;98640.84;;;4.11;100.00
29505;BME280;16452;54.174;12.092;2023-03-07T07:07:30;98624.09;;;3.90;100.00
29505;BME280;16452;54.174;12.092;2023-03-07T07:09:56;98625.41;;;4.11;100.00
29505;BME280;16452;54.174;12.092;2023-03-07T07:12:22;98616.75;;;3.98;100.00
29505;BME280;16452;54.174;12.092;2023-03-07T07:14:48;98612.97;;;4.04;100.00
29505;BME280;16452;54.174;12.092;2023-03-07T07:17:16;98601.44;;;4.38;100.00
29505;BME280;16452;54.174;12.092;2023-03-07T07:19:42;98598.59;;;4.42;100.00
29505;BME280;16452;54.174;12.092;2023-03-07T07:22:08;98588.31;;;4.55;100.00
29505;BME280;16452;54.174;12.092;2023-03-07T07:24:39;98582.13;;;4.31;100.00
29505;BME280;16452;54.174;12.092;2023-03-07T07:27:05;98571.63;;;4.20;100.00
29505;BME280;16452;54.174;12.092;2023-03-07T07:29:31;98566.25;;;4.37;100.00
29505;BME280;16452;54.174;12.092;2023-03-07T07:31:57;98554.78;;;4.28;100.00
29505;BME280;16452;54.174;12.092;2023-03-07T07:34:23;98564.91;;;4.31;100.00
29505;BME280;16452;54.174;12.092;2023-03-07T07:36:48;98557.53;;;4.39;100.00
29505;BME280;16452;54.174;12.092;2023-03-07T07:39:15;98535.94;;;4.28;100.00
29505;BME280;16452;54.174;12.092;2023-03-07T07:41:42;98548.13;;;4.38;100.00
29505;BME280;16452;54.174;12.092;2023-03-07T07:44:09;98534.69;;;4.47;100.00
29505;BME280;16452;54.174;12.092;2023-03-07T07:46:35;98531.44;;;4.58;100.00
29505;BME280;16452;54.174;12.092;2023-03-07T07:49:01;98526.13;;;4.47;100.00
29505;BME280;16452;54.174;12.092;2023-03-07T07:51:26;98518.56;;;4.44;100.00
29505;BME280;16452;54.174;12.092;2023-03-07T07:53:52;98509.56;;;4.64;100.00
29505;BME280;16452;54.174;12.092;2023-03-07T07:56:19;98525.22;;;4.87;100.00
29505;BME280;16452;54.174;12.092;2023-03-07T07:58:44;98522.13;;;4.82;100.00
29505;BME280;16452;54.174;12.092;2023-03-07T08:01:22;98508.13;;;5.12;100.00
29505;BME280;16452;54.174;12.092;2023-03-07T08:03:48;98512.63;;;4.95;100.00
29505;BME280;16452;54.174;12.092;2023-03-07T08:06:19;98519.69;;;5.06;100.00
29505;BME280;16452;54.174;12.092;2023-03-07T08:08:45;98505.84;;;5.20;100.00
29505;BME280;16452;54.174;12.092;2023-03-07T08:11:13;98512.06;;;5.17;100.00
29505;BME280;16452;54.174;12.092;2023-03-07T08:13:39;98513.59;;;5.32;100.00
29505;BME280;16452;54.174;12.092;2023-03-07T08:16:14;98508.84;;;5.39;99.06
29505;BME280;16452;54.174;12.092;2023-03-07T08:18:49;98515.13;;;5.60;96.97
29505;BME280;16452;54.174;12.092;2023-03-07T08:21:15;98493.88;;;5.31;97.78
29505;BME280;16452;54.174;12.092;2023-03-07T08:23:41;98498.84;;;5.34;98.35
29505;BME280;16452;54.174;12.092;2023-03-07T08:26:08;98500.09;;;5.29;97.86
29505;BME280;16452;54.174;12.092;2023-03-07T08:28:36;98502.97;;;5.37;98.05
29505;BME280;16452;54.174;12.092;2023-03-07T08:31:08;98493.78;;;5.58;97.08
29505;BME280;16452;54.174;12.092;2023-03-07T08:33:34;98488.22;;;5.26;97.44
29505;BME280;16452;54.174;12.092;2023-03-07T08:36:00;98483.44;;;5.58;96.19
29505;BME280;16452;54.174;12.092;2023-03-07T08:38:26;98492.81;;;5.59;95.00
29505;BME280;16452;54.174;12.092;2023-03-07T08:40:51;98481.03;;;5.93;93.28
29505;BME280;16452;54.174;12.092;2023-03-07T08:43:17;98483.13;;;5.88;93.29
29505;BME280;16452;54.174;12.092;2023-03-07T08:45:43;98498.78;;;5.85;93.18
29505;BME280;16452;54.174;12.092;2023-03-07T08:48:09;98500.06;;;5.92;92.64
29505;BME280;16452;54.174;12.092;2023-03-07T08:50:35;98506.06;;;5.93;93.68
29505;BME280;16452;54.174;12.092;2023-03-07T08:53:03;98498.22;;;6.18;91.87
29505;BME280;16452;54.174;12.092;2023-03-07T08:55:29;98511.38;;;6.02;91.90
29505;BME280;16452;54.174;12.092;2023-03-07T08:57:54;98505.63;;;5.99;92.14
29505;BME280;16452;54.174;12.092;2023-03-07T09:00:20;98506.97;;;6.28;90.67
29505;BME280;16452;54.174;12.092;2023-03-07T09:02:46;98503.38;;;6.66;90.01
29505;BME280;16452;54.174;12.092;2023-03-07T09:05:12;98511.72;;;6.58;90.39
29505;BME280;16452;54.174;12.092;2023-03-07T09:07:38;98495.25;;;6.59;88.72
29505;BME280;16452;54.174;12.092;2023-03-07T09:10:04;98507.97;;;6.38;89.46
29505;BME280;16452;54.174;12.092;2023-03-07T09:12:32;98494.94;;;6.64;89.73
29505;BME280;16452;54.174;12.092;2023-03-07T09:14:58;98507.34;;;6.58;88.18
29505;BME280;16452;54.174;12.092;2023-03-07T09:17:24;98516.41;;;6.88;87.39
29505;BME280;16452;54.174;12.092;2023-03-07T09:19:50;98512.44;;;6.95;87.10
29505;BME280;16452;54.174;12.092;2023-03-07T09:22:16;98527.03;;;6.96;90.38
29505;BME280;16452;54.174;12.092;2023-03-07T09:24:42;98523.88;;;7.04;92.32
29505;BME280;16452;54.174;12.092;2023-03-07T09:27:08;98518.47;;;7.07;91.75
29505;BME280;16452;54.174;12.092;2023-03-07T09:29:36;98544.78;;;7.35;90.68
29505;BME280;16452;54.174;12.092;2023-03-07T09:32:02;98564.97;;;6.60;94.12
29505;BME280;16452;54.174;12.092;2023-03-07T09:34:28;98549.34;;;6.38;96.47
29505;BME280;16452;54.174;12.092;2023-03-07T09:36:54;98563.53;;;6.33;99.23
29505;BME280;16452;54.174;12.092;2023-03-07T09:39:20;98559.22;;;6.21;99.89
29505;BME280;16452;54.174;12.092;2023-03-07T09:42:24;98549.91;;;6.54;98.89
29505;BME280;16452;54.174;12.092;2023-03-07T09:45:28;98564.25;;;6.82;94.01
29505;BME280;16452;54.174;12.092;2023-03-07T09:51:17;98529.56;;;7.09;84.85
29505;BME280;16452;54.174;12.092;2023-03-07T09:56:45;98549.03;;;7.48;81.36
29505;BME280;16452;54.174;12.092;2023-03-07T09:59:49;98552.91;;;7.31;77.98
29505;BME280;16452;54.174;12.092;2023-03-07T10:08:29;98554.28;;;7.24;79.05
29505;BME280;16452;54.174;12.092;2023-03-07T10:14:15;98558.13;;;7.07;79.98
29505;BME280;16452;54.174;12.092;2023-03-07T10:19:55;98562.09;;;7.46;81.08
29505;BME280;16452;54.174;12.092;2023-03-07T10:27:41;98575.97;;;7.80;80.92
29505;BME280;16452;54.174;12.092;2023-03-07T10:30:19;98565.44;;;7.59;79.93
29505;BME280;16452;54.174;12.092;2023-03-07T10:32:50;98564.88;;;7.89;78.64
29505;BME280;16452;54.174;12.092;2023-03-07T10:35:22;98567.22;;;7.70;75.66
29505;BME280;16452;54.174;12.092;2023-03-07T10:38:29;98569.47;;;7.86;77.14
29505;BME280;16452;54.174;12.092;2023-03-07T10:41:15;98572.66;;;7.89;75.93
29505;BME280;16452;54.174;12.092;2023-03-07T10:43:42;98586.19;;;7.81;74.69
29505;BME280;16452;54.174;12.092;2023-03-07T10:46:22;98585.16;;;7.95;74.74
29505;BME280;16452;54.174;12.092;2023-03-07T10:49:10;98570.63;;;7.70;73.71
29505;BME280;16452;54.174;12.092;2023-03-07T10:52:25;98590.44;;;7.82;72.36
29505;BME280;16452;54.174;12.092;2023-03-07T10:54:52;98585.63;;;7.89;72.78
29505;BME280;16452;54.174;12.092;2023-03-07T10:57:26;98593.03;;;7.94;74.10
29505;BME280;16452;54.174;12.092;2023-03-07T10:59:52;98590.44;;;8.16;74.34
29505;BME280;16452;54.174;12.092;2023-03-07T11:02:46;98611.06;;;7.84;75.77
29505;BME280;16452;54.174;12.092;2023-03-07T11:05:31;98608.34;;;7.74;77.76
29505;BME280;16452;54.174;12.092;2023-03-07T11:07:59;98604.34;;;8.04;78.66
29505;BME280;16452;54.174;12.092;2023-03-07T11:10:37;98604.00;;;8.19;78.38
29505;BME280;16452;54.174;12.092;2023-03-07T11:13:15;98615.69;;;8.14;76.59
29505;BME280;16452;54.174;12.092;2023-03-07T11:15:41;98610.59;;;8.01;77.11
29505;BME280;16452;54.174;12.092;2023-03-07T11:18:40;98606.13;;;8.25;74.58
29505;BME280;16452;54.174;12.092;2023-03-07T11:21:32;98607.78;;;8.27;74.31
29505;BME280;16452;54.174;12.092;2023-03-07T11:24:31;98608.94;;;8.00;74.38
29505;BME280;16452;54.174;12.092;2023-03-07T11:26:58;98604.69;;;7.88;72.54
29505;BME280;16452;54.174;12.092;2023-03-07T11:29:25;98619.75;;;7.72;73.92
29505;BME280;16452;54.174;12.092;2023-03-07T11:32:16;98626.06;;;8.03;72.09
29505;BME280;16452;54.174;12.092;2023-03-07T11:34:51;98618.19;;;7.58;70.41
29505;BME280;16452;54.174;12.092;2023-03-07T11:37:47;98641.75;;;7.55;66.88
29505;BME280;16452;54.174;12.092;2023-03-07T11:40:41;98636.09;;;7.50;65.15
29505;BME280;16452;54.174;12.092;2023-03-07T11:58:23;98655.31;;;6.87;69.79
29505;BME280;16452;54.174;12.092;2023-03-07T12:01:19;98656.41;;;7.09;67.27
29505;BME280;16452;54.174;12.092;2023-03-07T12:07:08;98664.25;;;7.66;64.93
29505;BME280;16452;54.174;12.092;2023-03-07T12:19:23;98671.78;;;7.69;64.99
29505;BME280;16452;54.174;12.092;2023-03-07T12:22:27;98676.53;;;7.40;65.66
29505;BME280;16452;54.174;12.092;2023-03-07T12:25:39;98683.97;;;7.45;67.88
29505;BME280;16452;54.174;12.092;2023-03-07T12:28:49;98693.69;;;7.30;69.00
29505;BME280;16452;54.174;12.092;2023-03-07T12:31:23;98684.63;;;7.12;69.37
29505;BME280;16452;54.174;12.092;2023-03-07T12:36:43;98710.00;;;6.83;67.54
29505;BME280;16452;54.174;12.092;2023-03-07T12:39:30;98705.97;;;6.79;66.91
29505;BME280;16452;54.174;12.092;2023-03-07T12:42:36;98710.25;;;6.67;65.74
29505;BME280;16452;54.174;12.092;2023-03-07T12:45:18;98719.44;;;6.58;65.57
29505;BME280;16452;54.174;12.092;2023-03-07T12:50:53;98730.63;;;6.59;67.35
29505;BME280;16452;54.174;12.092;2023-03-07T12:53:34;98728.75;;;6.86;65.76
29505;BME280;16452;54.174;12.092;2023-03-07T12:56:19;98731.06;;;7.02;68.40
29505;BME280;16452;54.174;12.092;2023-03-07T12:59:30;98728.13;;;7.43;71.61
29505;BME280;16452;54.174;12.092;2023-03-07T13:02:28;98752.84;;;7.47;72.43
29505;BME280;16452;54.174;12.092;2023-03-07T13:04:54;98749.72;;;7.31;74.28
29505;BME280;16452;54.174;12.092;2023-03-07T13:07:32;98737.03;;;7.15;75.04
29505;BME280;16452;54.174;12.092;2023-03-07T13:10:03;98752.97;;;7.22;73.68
29505;BME280;16452;54.174;12.092;2023-03-07T13:12:35;98762.25;;;6.88;72.48
29505;BME280;16452;54.174;12.092;2023-03-07T13:20:42;98771.63;;;6.40;71.04
29505;BME280;16452;54.174;12.092;2023-03-07T13:23:27;98782.88;;;6.39;72.15
29505;BME280;16452;54.174;12.092;2023-03-07T13:26:01;98789.59;;;6.41;72.06
29505;BME280;16452;54.174;12.092;2023-03-07T13:28:43;98781.03;;;6.28;71.61
29505;BME280;16452;54.174;12.092;2023-03-07T13:33:41;98779.06;;;6.32;69.59
29505;BME280;16452;54.174;12.092;2023-03-07T13:36:35;98784.56;;;6.40;69.24
29505;BME280;16452;54.174;12.092;2023-03-07T13:39:10;98793.38;;;5.98;72.70
29505;BME280;16452;54.174;12.092;2023-03-07T13:41:49;98805.53;;;6.23;72.72
29505;BME280;16452;54.174;12.092;2023-03-07T13:44:48;98787.81;;;6.04;72.75
29505;BME280;16452;54.174;12.092;2023-03-07T13:47:43;98798.59;;;6.23;71.95
29505;BME280;16452;54.174;12.092;2023-03-07T13:55:59;98800.44;;;6.08;71.55
29505;BME280;16452;54.174;12.092;2023-03-07T13:58:33;98806.94;;;6.14;70.03
29505;BME280;16452;54.174;12.092;2023-03-07T14:01:26;98795.09;;;6.37;68.93
29505;BME280;16452;54.174;12.092;2023-03-07T14:04:24;98809.06;;;6.34;67.96
29505;BME280;16452;54.174;12.092;2023-03-07T14:07:00;98806.63;;;6.06;66.55
29505;BME280;16452;54.174;12.092;2023-03-07T14:09:57;98811.06;;;6.04;65.45
29505;BME280;16452;54.174;12.092;2023-03-07T14:12:41;98818.91;;;6.02;67.31
29505;BME280;16452;54.174;12.092;2023-03-07T14:26:48;98850.38;;;5.27;67.75
29505;BME280;16452;54.174;12.092;2023-03-07T14:29:19;98857.38;;;5.53;68.13
29505;BME280;16452;54.174;12.092;2023-03-07T14:31:49;98839.66;;;5.74;69.40
29505;BME280;16452;54.174;12.092;2023-03-07T14:45:39;98842.88;;;5.77;63.69
29505;BME280;16452;54.174;12.092;2023-03-07T14:51:16;98868.84;;;5.76;62.67
29505;BME280;16452;54.174;12.092;2023-03-07T14:53:44;98860.28;;;5.61;64.86
29505;BME280;16452;54.174;12.092;2023-03-07T14:56:10;98860.88;;;5.52;66.70